sensor_id;sensor_type;location;lat;lon;timestamp;P1;durP1;ratioP1;P2;durP2;ratioP2
21326;SDS011;10822;51.532;6.770;2022-11-20T00:01:13;20.27;;;11.20;;
21326;SDS011;10822;51.532;6.770;2022-11-20T00:03:40;19.77;;;11.98;;
21326;SDS011;10822;51.532;6.770;2022-11-20T00:06:07;24.02;;;12.65;;
21326;SDS011;10822;51.532;6.770;2022-11-20T00:08:33;24.30;;;12.05;;
21326;SDS011;10822;51.532;6.770;2022-11-20T00:11:06;20.00;;;11.27;;
21326;SDS011;10822;51.532;6.770;2022-11-20T00:13:32;18.17;;;11.00;;
21326;SDS011;10822;51.532;6.770;2022-11-20T00:15:59;18.75;;;11.32;;
21326;SDS011;10822;51.532;6.770;2022-11-20T00:18:26;18.05;;;10.95;;
21326;SDS011;10822;51.532;6.770;2022-11-20T00:20:52;19.77;;;10.80;;
21326;SDS011;10822;51.532;6.770;2022-11-20T00:23:18;19.85;;;10.90;;
21326;SDS011;10822;51.532;6.770;2022-11-20T00:25:44;18.50;;;10.98;;
21326;SDS011;10822;51.532;6.770;2022-11-20T00:28:10;20.88;;;11.27;;
21326;SDS011;10822;51.532;6.770;2022-11-20T00:30:36;21.20;;;11.77;;
21326;SDS011;10822;51.532;6.770;2022-11-20T00:33:02;19.13;;;11.15;;
21326;SDS011;10822;51.532;6.770;2022-11-20T00:35:28;19.83;;;11.60;;
21326;SDS011;10822;51.532;6.770;2022-11-20T00:37:54;18.80;;;10.73;;
21326;SDS011;10822;51.532;6.770;2022-11-20T00:40:20;17.38;;;10.85;;
21326;SDS011;10822;51.532;6.770;2022-11-20T00:42:46;18.85;;;11.45;;
21326;SDS011;10822;51.532;6.770;2022-11-20T00:45:12;21.08;;;11.60;;
21326;SDS011;10822;51.532;6.770;2022-11-20T00:47:38;20.65;;;11.80;;
21326;SDS011;10822;51.532;6.770;2022-11-20T00:50:04;22.20;;;12.40;;
21326;SDS011;10822;51.532;6.770;2022-11-20T00:52:30;22.75;;;12.82;;
21326;SDS011;10822;51.532;6.770;2022-11-20T00:54:56;23.58;;;12.73;;
21326;SDS011;10822;51.532;6.770;2022-11-20T00:57:21;22.15;;;12.55;;
21326;SDS011;10822;51.532;6.770;2022-11-20T00:59:47;22.05;;;12.05;;
21326;SDS011;10822;51.532;6.770;2022-11-20T01:02:13;21.88;;;12.27;;
21326;SDS011;10822;51.532;6.770;2022-11-20T01:04:41;21.05;;;12.48;;
21326;SDS011;10822;51.532;6.770;2022-11-20T01:07:07;24.30;;;13.13;;
21326;SDS011;10822;51.532;6.770;2022-11-20T01:09:33;21.90;;;12.68;;
21326;SDS011;10822;51.532;6.770;2022-11-20T01:11:59;20.80;;;11.25;;
21326;SDS011;10822;51.532;6.770;2022-11-20T01:14:25;20.02;;;11.85;;
21326;SDS011;10822;51.532;6.770;2022-11-20T01:16:51;22.90;;;12.32;;
21326;SDS011;10822;51.532;6.770;2022-11-20T01:19:21;20.58;;;11.93;;
21326;SDS011;10822;51.532;6.770;2022-11-20T01:21:48;20.77;;;11.57;;
21326;SDS011;10822;51.532;6.770;2022-11-20T01:24:16;23.55;;;11.45;;
21326;SDS011;10822;51.532;6.770;2022-11-20T01:26:43;20.55;;;11.55;;
21326;SDS011;10822;51.532;6.770;2022-11-20T01:29:13;22.42;;;12.63;;
21326;SDS011;10822;51.532;6.770;2022-11-20T01:31:39;21.25;;;12.57;;
21326;SDS011;10822;51.532;6.770;2022-11-20T01:34:06;24.58;;;11.65;;
21326;SDS011;10822;51.532;6.770;2022-11-20T01:36:33;22.02;;;11.73;;
21326;SDS011;10822;51.532;6.770;2022-11-20T01:39:04;17.52;;;11.07;;
21326;SDS011;10822;51.532;6.770;2022-11-20T01:41:31;20.58;;;12.05;;
21326;SDS011;10822;51.532;6.770;2022-11-20T01:44:17;22.50;;;11.98;;
21326;SDS011;10822;51.532;6.770;2022-11-20T01:47:04;18.40;;;11.75;;
21326;SDS011;10822;51.532;6.770;2022-11-20T01:49:32;18.33;;;11.05;;
21326;SDS011;10822;51.532;6.770;2022-11-20T01:52:01;20.23;;;11.25;;
21326;SDS011;10822;51.532;6.770;2022-11-20T01:54:36;17.27;;;11.35;;
21326;SDS011;10822;51.532;6.770;2022-11-20T01:57:03;22.08;;;11.57;;
21326;SDS011;10822;51.532;6.770;2022-11-20T01:59:30;23.15;;;11.65;;
21326;SDS011;10822;51.532;6.770;2022-11-20T02:01:56;21.05;;;12.20;;
21326;SDS011;10822;51.532;6.770;2022-11-20T02:04:22;21.27;;;12.35;;
21326;SDS011;10822;51.532;6.770;2022-11-20T02:06:49;20.30;;;12.85;;
21326;SDS011;10822;51.532;6.770;2022-11-20T02:09:16;20.95;;;11.40;;
21326;SDS011;10822;51.532;6.770;2022-11-20T02:11:42;20.67;;;11.68;;
21326;SDS011;10822;51.532;6.770;2022-11-20T02:14:08;19.73;;;11.23;;
21326;SDS011;10822;51.532;6.770;2022-11-20T02:16:37;20.48;;;11.23;;
21326;SDS011;10822;51.532;6.770;2022-11-20T02:19:04;23.02;;;11.75;;
21326;SDS011;10822;51.532;6.770;2022-11-20T02:21:34;20.23;;;12.35;;
21326;SDS011;10822;51.532;6.770;2022-11-20T02:26:31;20.02;;;11.98;;
21326;SDS011;10822;51.532;6.770;2022-11-20T02:28:59;19.15;;;11.65;;
21326;SDS011;10822;51.532;6.770;2022-11-20T02:31:25;18.60;;;11.55;;
21326;SDS011;10822;51.532;6.770;2022-11-20T02:33:55;21.98;;;12.30;;
21326;SDS011;10822;51.532;6.770;2022-11-20T02:36:22;18.17;;;11.30;;
21326;SDS011;10822;51.532;6.770;2022-11-20T02:38:49;20.63;;;12.07;;
21326;SDS011;10822;51.532;6.770;2022-11-20T02:41:15;20.58;;;11.00;;
21326;SDS011;10822;51.532;6.770;2022-11-20T02:43:41;18.75;;;11.57;;
21326;SDS011;10822;51.532;6.770;2022-11-20T02:46:07;17.33;;;10.93;;
21326;SDS011;10822;51.532;6.770;2022-11-20T02:48:33;21.30;;;11.38;;
21326;SDS011;10822;51.532;6.770;2022-11-20T02:50:59;18.95;;;10.95;;
21326;SDS011;10822;51.532;6.770;2022-11-20T02:53:25;19.88;;;11.80;;
21326;SDS011;10822;51.532;6.770;2022-11-20T02:55:51;20.73;;;11.93;;
21326;SDS011;10822;51.532;6.770;2022-11-20T02:58:17;21.75;;;11.85;;
21326;SDS011;10822;51.532;6.770;2022-11-20T03:00:43;19.08;;;11.98;;
21326;SDS011;10822;51.532;6.770;2022-11-20T03:03:09;18.40;;;11.38;;
21326;SDS011;10822;51.532;6.770;2022-11-20T03:05:35;20.52;;;11.90;;
21326;SDS011;10822;51.532;6.770;2022-11-20T03:08:01;21.08;;;12.20;;
21326;SDS011;10822;51.532;6.770;2022-11-20T03:10:27;21.20;;;12.02;;
21326;SDS011;10822;51.532;6.770;2022-11-20T03:12:54;19.63;;;11.32;;
21326;SDS011;10822;51.532;6.770;2022-11-20T03:15:21;18.30;;;11.10;;
21326;SDS011;10822;51.532;6.770;2022-11-20T03:17:46;18.15;;;11.02;;
21326;SDS011;10822;51.532;6.770;2022-11-20T03:20:13;21.00;;;11.80;;
21326;SDS011;10822;51.532;6.770;2022-11-20T03:22:39;18.20;;;11.63;;
21326;SDS011;10822;51.532;6.770;2022-11-20T03:25:05;18.63;;;11.55;;
21326;SDS011;10822;51.532;6.770;2022-11-20T03:27:31;22.58;;;12.18;;
21326;SDS011;10822;51.532;6.770;2022-11-20T03:29:58;21.48;;;12.52;;
21326;SDS011;10822;51.532;6.770;2022-11-20T03:32:24;19.33;;;11.88;;
21326;SDS011;10822;51.532;6.770;2022-11-20T03:34:50;21.75;;;12.18;;
21326;SDS011;10822;51.532;6.770;2022-11-20T03:37:16;19.58;;;11.18;;
21326;SDS011;10822;51.532;6.770;2022-11-20T03:39:41;18.33;;;11.00;;
21326;SDS011;10822;51.532;6.770;2022-11-20T03:42:08;18.35;;;11.57;;
21326;SDS011;10822;51.532;6.770;2022-11-20T03:44:54;17.80;;;11.45;;
21326;SDS011;10822;51.532;6.770;2022-11-20T03:47:20;17.98;;;11.18;;
21326;SDS011;10822;51.532;6.770;2022-11-20T03:49:46;20.63;;;12.00;;
21326;SDS011;10822;51.532;6.770;2022-11-20T03:52:12;19.00;;;11.52;;
21326;SDS011;10822;51.532;6.770;2022-11-20T03:54:38;19.88;;;11.95;;
21326;SDS011;10822;51.532;6.770;2022-11-20T03:57:04;20.50;;;11.90;;
21326;SDS011;10822;51.532;6.770;2022-11-20T03:59:30;18.05;;;11.05;;
21326;SDS011;10822;51.532;6.770;2022-11-20T04:01:56;17.85;;;10.77;;
21326;SDS011;10822;51.532;6.770;2022-11-20T04:04:22;20.90;;;12.30;;
21326;SDS011;10822;51.532;6.770;2022-11-20T04:06:48;21.20;;;11.52;;
21326;SDS011;10822;51.532;6.770;2022-11-20T04:09:14;18.38;;;11.75;;
21326;SDS011;10822;51.532;6.770;2022-11-20T04:11:40;19.45;;;11.70;;
21326;SDS011;10822;51.532;6.770;2022-11-20T04:14:11;21.08;;;11.95;;
21326;SDS011;10822;51.532;6.770;2022-11-20T04:16:38;21.90;;;12.70;;
21326;SDS011;10822;51.532;6.770;2022-11-20T04:19:05;19.50;;;11.93;;
21326;SDS011;10822;51.532;6.770;2022-11-20T04:21:31;20.67;;;13.07;;
21326;SDS011;10822;51.532;6.770;2022-11-20T04:23:57;18.83;;;11.05;;
21326;SDS011;10822;51.532;6.770;2022-11-20T04:26:24;18.95;;;11.52;;
21326;SDS011;10822;51.532;6.770;2022-11-20T04:28:51;20.70;;;12.23;;
21326;SDS011;10822;51.532;6.770;2022-11-20T04:31:18;20.35;;;12.57;;
21326;SDS011;10822;51.532;6.770;2022-11-20T04:33:44;20.00;;;11.43;;
21326;SDS011;10822;51.532;6.770;2022-11-20T04:36:11;20.65;;;11.57;;
21326;SDS011;10822;51.532;6.770;2022-11-20T04:38:38;18.77;;;11.68;;
21326;SDS011;10822;51.532;6.770;2022-11-20T04:41:05;20.70;;;11.75;;
21326;SDS011;10822;51.532;6.770;2022-11-20T04:43:32;18.30;;;11.25;;
21326;SDS011;10822;51.532;6.770;2022-11-20T04:46:01;18.70;;;11.10;;
21326;SDS011;10822;51.532;6.770;2022-11-20T04:48:28;21.58;;;11.88;;
21326;SDS011;10822;51.532;6.770;2022-11-20T04:50:54;21.88;;;13.07;;
21326;SDS011;10822;51.532;6.770;2022-11-20T04:53:21;22.63;;;11.52;;
21326;SDS011;10822;51.532;6.770;2022-11-20T04:55:47;19.83;;;11.85;;
21326;SDS011;10822;51.532;6.770;2022-11-20T04:58:13;19.48;;;11.38;;
21326;SDS011;10822;51.532;6.770;2022-11-20T05:00:39;17.80;;;11.15;;
21326;SDS011;10822;51.532;6.770;2022-11-20T05:03:05;19.85;;;11.05;;
21326;SDS011;10822;51.532;6.770;2022-11-20T05:05:33;19.65;;;11.60;;
21326;SDS011;10822;51.532;6.770;2022-11-20T05:07:59;20.58;;;12.27;;
21326;SDS011;10822;51.532;6.770;2022-11-20T05:10:26;21.77;;;12.43;;
21326;SDS011;10822;51.532;6.770;2022-11-20T05:12:53;19.70;;;11.75;;
21326;SDS011;10822;51.532;6.770;2022-11-20T05:15:19;20.50;;;11.75;;
21326;SDS011;10822;51.532;6.770;2022-11-20T05:17:51;22.67;;;11.80;;
21326;SDS011;10822;51.532;6.770;2022-11-20T05:20:18;22.33;;;12.05;;
21326;SDS011;10822;51.532;6.770;2022-11-20T05:22:44;20.45;;;11.90;;
21326;SDS011;10822;51.532;6.770;2022-11-20T05:25:11;18.48;;;11.73;;
21326;SDS011;10822;51.532;6.770;2022-11-20T05:27:37;21.50;;;12.63;;
21326;SDS011;10822;51.532;6.770;2022-11-20T05:30:03;19.80;;;11.70;;
21326;SDS011;10822;51.532;6.770;2022-11-20T05:32:29;18.83;;;11.40;;
21326;SDS011;10822;51.532;6.770;2022-11-20T05:34:55;19.48;;;11.68;;
21326;SDS011;10822;51.532;6.770;2022-11-20T05:37:21;22.17;;;12.70;;
21326;SDS011;10822;51.532;6.770;2022-11-20T05:39:47;23.27;;;12.55;;
21326;SDS011;10822;51.532;6.770;2022-11-20T05:42:13;20.88;;;11.90;;
21326;SDS011;10822;51.532;6.770;2022-11-20T05:44:58;18.90;;;11.35;;
21326;SDS011;10822;51.532;6.770;2022-11-20T05:47:24;22.20;;;12.25;;
21326;SDS011;10822;51.532;6.770;2022-11-20T05:49:50;20.95;;;12.60;;
21326;SDS011;10822;51.532;6.770;2022-11-20T05:52:16;18.48;;;12.00;;
21326;SDS011;10822;51.532;6.770;2022-11-20T05:54:42;20.50;;;12.45;;
21326;SDS011;10822;51.532;6.770;2022-11-20T05:57:08;21.67;;;12.35;;
21326;SDS011;10822;51.532;6.770;2022-11-20T05:59:34;19.35;;;11.75;;
21326;SDS011;10822;51.532;6.770;2022-11-20T06:02:00;21.85;;;11.82;;
21326;SDS011;10822;51.532;6.770;2022-11-20T06:04:26;23.15;;;13.05;;
21326;SDS011;10822;51.532;6.770;2022-11-20T06:06:52;20.95;;;12.40;;
21326;SDS011;10822;51.532;6.770;2022-11-20T06:09:18;21.65;;;12.05;;
21326;SDS011;10822;51.532;6.770;2022-11-20T06:11:44;20.35;;;12.30;;
21326;SDS011;10822;51.532;6.770;2022-11-20T06:14:09;20.80;;;11.73;;
21326;SDS011;10822;51.532;6.770;2022-11-20T06:16:35;22.20;;;11.68;;
21326;SDS011;10822;51.532;6.770;2022-11-20T06:19:01;22.33;;;13.18;;
21326;SDS011;10822;51.532;6.770;2022-11-20T06:21:27;19.25;;;12.20;;
21326;SDS011;10822;51.532;6.770;2022-11-20T06:23:53;19.48;;;12.23;;
21326;SDS011;10822;51.532;6.770;2022-11-20T06:26:21;17.63;;;11.77;;
21326;SDS011;10822;51.532;6.770;2022-11-20T06:28:47;19.15;;;12.05;;
21326;SDS011;10822;51.532;6.770;2022-11-20T06:31:14;20.70;;;12.63;;
21326;SDS011;10822;51.532;6.770;2022-11-20T06:33:41;22.52;;;12.93;;
21326;SDS011;10822;51.532;6.770;2022-11-20T06:36:07;20.67;;;12.55;;
21326;SDS011;10822;51.532;6.770;2022-11-20T06:38:33;20.13;;;12.02;;
21326;SDS011;10822;51.532;6.770;2022-11-20T06:40:59;21.23;;;12.32;;
21326;SDS011;10822;51.532;6.770;2022-11-20T06:43:25;19.92;;;12.38;;
21326;SDS011;10822;51.532;6.770;2022-11-20T06:45:52;18.77;;;11.65;;
21326;SDS011;10822;51.532;6.770;2022-11-20T06:48:18;18.95;;;11.93;;
21326;SDS011;10822;51.532;6.770;2022-11-20T06:50:45;21.63;;;12.02;;
21326;SDS011;10822;51.532;6.770;2022-11-20T06:53:11;21.73;;;12.32;;
21326;SDS011;10822;51.532;6.770;2022-11-20T06:55:36;19.60;;;11.70;;
21326;SDS011;10822;51.532;6.770;2022-11-20T06:58:02;19.92;;;12.18;;
21326;SDS011;10822;51.532;6.770;2022-11-20T07:00:28;23.65;;;12.45;;
21326;SDS011;10822;51.532;6.770;2022-11-20T07:02:54;20.38;;;12.45;;
21326;SDS011;10822;51.532;6.770;2022-11-20T07:05:20;21.02;;;11.93;;
21326;SDS011;10822;51.532;6.770;2022-11-20T07:07:46;19.98;;;12.05;;
21326;SDS011;10822;51.532;6.770;2022-11-20T07:10:12;19.98;;;12.50;;
21326;SDS011;10822;51.532;6.770;2022-11-20T07:12:38;19.92;;;12.13;;
21326;SDS011;10822;51.532;6.770;2022-11-20T07:15:04;21.60;;;12.93;;
21326;SDS011;10822;51.532;6.770;2022-11-20T07:17:30;20.00;;;12.38;;
21326;SDS011;10822;51.532;6.770;2022-11-20T07:19:56;20.73;;;12.52;;
21326;SDS011;10822;51.532;6.770;2022-11-20T07:22:22;21.75;;;13.30;;
21326;SDS011;10822;51.532;6.770;2022-11-20T07:24:48;20.58;;;12.32;;
21326;SDS011;10822;51.532;6.770;2022-11-20T07:27:14;19.65;;;12.48;;
21326;SDS011;10822;51.532;6.770;2022-11-20T07:29:40;21.48;;;13.02;;
21326;SDS011;10822;51.532;6.770;2022-11-20T07:32:06;23.60;;;15.00;;
21326;SDS011;10822;51.532;6.770;2022-11-20T07:34:32;23.45;;;13.75;;
21326;SDS011;10822;51.532;6.770;2022-11-20T07:36:58;23.30;;;14.75;;
21326;SDS011;10822;51.532;6.770;2022-11-20T07:39:24;23.13;;;13.82;;
21326;SDS011;10822;51.532;6.770;2022-11-20T07:41:50;24.15;;;14.82;;
21326;SDS011;10822;51.532;6.770;2022-11-20T07:44:15;21.60;;;14.02;;
21326;SDS011;10822;51.532;6.770;2022-11-20T07:46:41;22.55;;;14.07;;
21326;SDS011;10822;51.532;6.770;2022-11-20T07:49:07;22.33;;;13.63;;
21326;SDS011;10822;51.532;6.770;2022-11-20T07:51:33;24.23;;;13.95;;
21326;SDS011;10822;51.532;6.770;2022-11-20T07:53:59;22.95;;;13.82;;
21326;SDS011;10822;51.532;6.770;2022-11-20T07:56:25;22.80;;;13.57;;
21326;SDS011;10822;51.532;6.770;2022-11-20T07:58:51;23.05;;;13.52;;
21326;SDS011;10822;51.532;6.770;2022-11-20T08:01:17;22.30;;;13.82;;
21326;SDS011;10822;51.532;6.770;2022-11-20T08:03:43;24.25;;;14.10;;
21326;SDS011;10822;51.532;6.770;2022-11-20T08:06:09;21.27;;;13.32;;
21326;SDS011;10822;51.532;6.770;2022-11-20T08:08:35;25.77;;;14.98;;
21326;SDS011;10822;51.532;6.770;2022-11-20T08:11:01;24.35;;;14.82;;
21326;SDS011;10822;51.532;6.770;2022-11-20T08:13:45;26.55;;;15.98;;
21326;SDS011;10822;51.532;6.770;2022-11-20T08:16:30;28.48;;;15.27;;
21326;SDS011;10822;51.532;6.770;2022-11-20T08:18:56;29.38;;;16.15;;
21326;SDS011;10822;51.532;6.770;2022-11-20T08:21:22;28.10;;;15.65;;
21326;SDS011;10822;51.532;6.770;2022-11-20T08:23:48;25.30;;;14.80;;
21326;SDS011;10822;51.532;6.770;2022-11-20T08:26:14;25.48;;;16.05;;
21326;SDS011;10822;51.532;6.770;2022-11-20T08:28:40;26.05;;;15.93;;
21326;SDS011;10822;51.532;6.770;2022-11-20T08:31:06;27.92;;;15.82;;
21326;SDS011;10822;51.532;6.770;2022-11-20T08:33:34;26.30;;;15.50;;
21326;SDS011;10822;51.532;6.770;2022-11-20T08:36:00;27.30;;;16.17;;
21326;SDS011;10822;51.532;6.770;2022-11-20T08:38:27;24.92;;;16.10;;
21326;SDS011;10822;51.532;6.770;2022-11-20T08:40:55;26.48;;;15.98;;
21326;SDS011;10822;51.532;6.770;2022-11-20T08:43:40;23.77;;;14.88;;
21326;SDS011;10822;51.532;6.770;2022-11-20T08:46:06;29.42;;;15.88;;
21326;SDS011;10822;51.532;6.770;2022-11-20T08:48:32;28.42;;;17.25;;
21326;SDS011;10822;51.532;6.770;2022-11-20T08:50:58;28.83;;;17.30;;
21326;SDS011;10822;51.532;6.770;2022-11-20T08:53:25;26.05;;;16.88;;
21326;SDS011;10822;51.532;6.770;2022-11-20T08:55:51;27.73;;;17.00;;
21326;SDS011;10822;51.532;6.770;2022-11-20T08:58:17;26.00;;;16.17;;
21326;SDS011;10822;51.532;6.770;2022-11-20T09:00:43;26.80;;;16.23;;
21326;SDS011;10822;51.532;6.770;2022-11-20T09:03:09;25.42;;;15.70;;
21326;SDS011;10822;51.532;6.770;2022-11-20T09:05:35;31.88;;;16.55;;
21326;SDS011;10822;51.532;6.770;2022-11-20T09:08:01;26.17;;;16.70;;
21326;SDS011;10822;51.532;6.770;2022-11-20T09:10:27;29.90;;;16.08;;
21326;SDS011;10822;51.532;6.770;2022-11-20T09:12:53;31.20;;;16.70;;
21326;SDS011;10822;51.532;6.770;2022-11-20T09:15:20;26.67;;;16.25;;
21326;SDS011;10822;51.532;6.770;2022-11-20T09:18:04;26.45;;;17.25;;
21326;SDS011;10822;51.532;6.770;2022-11-20T09:20:30;29.20;;;16.45;;
21326;SDS011;10822;51.532;6.770;2022-11-20T09:22:56;29.33;;;17.65;;
21326;SDS011;10822;51.532;6.770;2022-11-20T09:25:23;30.25;;;16.73;;
21326;SDS011;10822;51.532;6.770;2022-11-20T09:27:54;28.73;;;16.35;;
21326;SDS011;10822;51.532;6.770;2022-11-20T09:30:20;31.38;;;17.35;;
21326;SDS011;10822;51.532;6.770;2022-11-20T09:32:46;29.08;;;17.10;;
21326;SDS011;10822;51.532;6.770;2022-11-20T09:35:12;29.05;;;17.40;;
21326;SDS011;10822;51.532;6.770;2022-11-20T09:37:39;31.58;;;18.92;;
21326;SDS011;10822;51.532;6.770;2022-11-20T09:40:05;31.83;;;19.15;;
21326;SDS011;10822;51.532;6.770;2022-11-20T09:47:41;30.85;;;18.08;;
21326;SDS011;10822;51.532;6.770;2022-11-20T09:53:10;31.70;;;18.42;;
21326;SDS011;10822;51.532;6.770;2022-11-20T09:55:38;28.67;;;18.17;;
21326;SDS011;10822;51.532;6.770;2022-11-20T09:58:05;30.80;;;18.38;;
21326;SDS011;10822;51.532;6.770;2022-11-20T10:00:32;30.92;;;18.00;;
21326;SDS011;10822;51.532;6.770;2022-11-20T10:05:27;33.22;;;18.67;;
21326;SDS011;10822;51.532;6.770;2022-11-20T10:23:04;29.92;;;18.98;;
21326;SDS011;10822;51.532;6.770;2022-11-20T10:25:39;32.30;;;20.33;;
21326;SDS011;10822;51.532;6.770;2022-11-20T10:28:24;31.35;;;19.63;;
21326;SDS011;10822;51.532;6.770;2022-11-20T10:30:56;31.75;;;19.63;;
21326;SDS011;10822;51.532;6.770;2022-11-20T10:33:23;32.83;;;20.15;;
21326;SDS011;10822;51.532;6.770;2022-11-20T10:36:04;30.60;;;19.98;;
21326;SDS011;10822;51.532;6.770;2022-11-20T10:38:34;32.33;;;19.70;;
21326;SDS011;10822;51.532;6.770;2022-11-20T10:41:02;31.50;;;19.25;;
21326;SDS011;10822;51.532;6.770;2022-11-20T10:43:47;31.83;;;18.85;;
21326;SDS011;10822;51.532;6.770;2022-11-20T10:46:24;32.17;;;19.42;;
21326;SDS011;10822;51.532;6.770;2022-11-20T10:48:50;29.20;;;19.25;;
21326;SDS011;10822;51.532;6.770;2022-11-20T10:51:36;34.63;;;20.20;;
21326;SDS011;10822;51.532;6.770;2022-11-20T10:56:37;30.92;;;18.50;;
21326;SDS011;10822;51.532;6.770;2022-11-20T10:59:11;28.27;;;19.63;;
21326;SDS011;10822;51.532;6.770;2022-11-20T11:01:40;31.02;;;20.55;;
21326;SDS011;10822;51.532;6.770;2022-11-20T11:04:49;29.38;;;20.08;;
21326;SDS011;10822;51.532;6.770;2022-11-20T11:07:04;28.92;;;18.05;;
21326;SDS011;10822;51.532;6.770;2022-11-20T11:09:33;28.60;;;16.58;;
21326;SDS011;10822;51.532;6.770;2022-11-20T11:12:00;24.40;;;14.90;;
21326;SDS011;10822;51.532;6.770;2022-11-20T11:14:26;27.90;;;16.92;;
21326;SDS011;10822;51.532;6.770;2022-11-20T11:16:53;27.85;;;17.80;;
21326;SDS011;10822;51.532;6.770;2022-11-20T11:19:19;31.35;;;18.05;;
21326;SDS011;10822;51.532;6.770;2022-11-20T11:21:46;28.98;;;16.10;;
21326;SDS011;10822;51.532;6.770;2022-11-20T11:24:20;27.50;;;18.05;;
21326;SDS011;10822;51.532;6.770;2022-11-20T11:26:57;31.25;;;17.40;;
21326;SDS011;10822;51.532;6.770;2022-11-20T11:29:24;31.80;;;16.50;;
21326;SDS011;10822;51.532;6.770;2022-11-20T11:32:07;32.10;;;17.00;;
21326;SDS011;10822;51.532;6.770;2022-11-20T11:34:33;35.45;;;18.23;;
21326;SDS011;10822;51.532;6.770;2022-11-20T11:37:00;30.92;;;17.20;;
21326;SDS011;10822;51.532;6.770;2022-11-20T11:39:28;34.80;;;18.52;;
21326;SDS011;10822;51.532;6.770;2022-11-20T11:41:55;36.08;;;18.00;;
21326;SDS011;10822;51.532;6.770;2022-11-20T11:44:23;31.83;;;17.20;;
21326;SDS011;10822;51.532;6.770;2022-11-20T11:47:11;32.05;;;17.20;;
21326;SDS011;10822;51.532;6.770;2022-11-20T11:49:43;32.10;;;17.58;;
21326;SDS011;10822;51.532;6.770;2022-11-20T11:52:17;27.98;;;16.80;;
21326;SDS011;10822;51.532;6.770;2022-11-20T11:59:57;28.88;;;16.30;;
21326;SDS011;10822;51.532;6.770;2022-11-20T12:03:12;28.55;;;15.95;;
21326;SDS011;10822;51.532;6.770;2022-11-20T12:05:19;24.48;;;14.18;;
21326;SDS011;10822;51.532;6.770;2022-11-20T12:07:52;24.20;;;14.30;;
21326;SDS011;10822;51.532;6.770;2022-11-20T12:15:49;23.13;;;13.40;;
21326;SDS011;10822;51.532;6.770;2022-11-20T12:18:16;23.83;;;14.18;;
21326;SDS011;10822;51.532;6.770;2022-11-20T12:21:06;25.63;;;14.38;;
21326;SDS011;10822;51.532;6.770;2022-11-20T12:26:03;24.48;;;14.18;;
21326;SDS011;10822;51.532;6.770;2022-11-20T12:36:15;24.00;;;14.00;;
21326;SDS011;10822;51.532;6.770;2022-11-20T12:52:34;24.67;;;13.55;;
21326;SDS011;10822;51.532;6.770;2022-11-20T12:55:08;26.60;;;14.45;;
21326;SDS011;10822;51.532;6.770;2022-11-20T13:00:21;25.17;;;15.63;;
21326;SDS011;10822;51.532;6.770;2022-11-20T13:05:37;31.63;;;17.50;;
21326;SDS011;10822;51.532;6.770;2022-11-20T13:08:07;31.15;;;19.13;;
21326;SDS011;10822;51.532;6.770;2022-11-20T13:10:39;31.73;;;17.35;;
21326;SDS011;10822;51.532;6.770;2022-11-20T13:13:14;25.87;;;13.77;;
21326;SDS011;10822;51.532;6.770;2022-11-20T13:15:50;24.10;;;14.07;;
21326;SDS011;10822;51.532;6.770;2022-11-20T13:18:17;26.25;;;14.35;;
21326;SDS011;10822;51.532;6.770;2022-11-20T13:20:45;39.58;;;24.90;;
21326;SDS011;10822;51.532;6.770;2022-11-20T13:23:22;23.48;;;14.30;;
21326;SDS011;10822;51.532;6.770;2022-11-20T13:25:49;25.30;;;14.80;;
21326;SDS011;10822;51.532;6.770;2022-11-20T13:30:53;23.65;;;13.80;;
21326;SDS011;10822;51.532;6.770;2022-11-20T13:33:32;25.35;;;13.05;;
21326;SDS011;10822;51.532;6.770;2022-11-20T13:36:03;22.10;;;12.82;;
21326;SDS011;10822;51.532;6.770;2022-11-20T13:38:40;24.60;;;13.60;;
21326;SDS011;10822;51.532;6.770;2022-11-20T13:41:08;24.60;;;13.80;;
21326;SDS011;10822;51.532;6.770;2022-11-20T13:43:54;26.00;;;14.32;;
21326;SDS011;10822;51.532;6.770;2022-11-20T13:46:20;26.88;;;14.35;;
21326;SDS011;10822;51.532;6.770;2022-11-20T13:48:49;25.92;;;14.30;;
21326;SDS011;10822;51.532;6.770;2022-11-20T13:51:49;25.13;;;14.77;;
21326;SDS011;10822;51.532;6.770;2022-11-20T14:01:45;27.60;;;15.02;;
21326;SDS011;10822;51.532;6.770;2022-11-20T14:04:15;24.73;;;14.50;;
21326;SDS011;10822;51.532;6.770;2022-11-20T14:06:46;27.80;;;16.17;;
21326;SDS011;10822;51.532;6.770;2022-11-20T14:09:30;25.05;;;13.68;;
21326;SDS011;10822;51.532;6.770;2022-11-20T14:11:56;29.92;;;15.98;;
21326;SDS011;10822;51.532;6.770;2022-11-20T14:14:23;28.15;;;15.20;;
21326;SDS011;10822;51.532;6.770;2022-11-20T14:16:49;30.60;;;15.77;;
21326;SDS011;10822;51.532;6.770;2022-11-20T14:19:26;27.73;;;15.27;;
21326;SDS011;10822;51.532;6.770;2022-11-20T14:21:53;31.23;;;16.42;;
21326;SDS011;10822;51.532;6.770;2022-11-20T14:24:23;26.55;;;14.48;;
21326;SDS011;10822;51.532;6.770;2022-11-20T14:26:50;29.10;;;16.10;;
21326;SDS011;10822;51.532;6.770;2022-11-20T14:29:20;27.23;;;14.18;;
21326;SDS011;10822;51.532;6.770;2022-11-20T14:31:47;29.42;;;15.10;;
21326;SDS011;10822;51.532;6.770;2022-11-20T14:34:17;28.55;;;15.48;;
21326;SDS011;10822;51.532;6.770;2022-11-20T14:36:44;29.10;;;15.48;;
21326;SDS011;10822;51.532;6.770;2022-11-20T14:39:55;30.45;;;15.00;;
21326;SDS011;10822;51.532;6.770;2022-11-20T14:41:57;32.72;;;16.55;;
21326;SDS011;10822;51.532;6.770;2022-11-20T14:44:30;31.02;;;16.02;;
21326;SDS011;10822;51.532;6.770;2022-11-20T14:46:57;29.42;;;15.30;;
21326;SDS011;10822;51.532;6.770;2022-11-20T14:49:24;30.88;;;15.35;;
21326;SDS011;10822;51.532;6.770;2022-11-20T14:52:01;32.95;;;16.00;;
21326;SDS011;10822;51.532;6.770;2022-11-20T14:54:28;30.15;;;15.48;;
21326;SDS011;10822;51.532;6.770;2022-11-20T14:56:56;31.95;;;16.45;;
21326;SDS011;10822;51.532;6.770;2022-11-20T14:59:23;30.75;;;16.17;;
21326;SDS011;10822;51.532;6.770;2022-11-20T15:02:04;32.15;;;16.98;;
21326;SDS011;10822;51.532;6.770;2022-11-20T15:04:30;31.33;;;16.17;;
21326;SDS011;10822;51.532;6.770;2022-11-20T15:06:57;34.85;;;17.25;;
21326;SDS011;10822;51.532;6.770;2022-11-20T15:09:23;32.58;;;17.40;;
21326;SDS011;10822;51.532;6.770;2022-11-20T15:11:56;31.38;;;16.63;;
21326;SDS011;10822;51.532;6.770;2022-11-20T15:14:23;30.40;;;16.08;;
21326;SDS011;10822;51.532;6.770;2022-11-20T15:16:49;32.25;;;17.00;;
21326;SDS011;10822;51.532;6.770;2022-11-20T15:19:17;30.00;;;16.92;;
21326;SDS011;10822;51.532;6.770;2022-11-20T15:21:43;27.15;;;16.00;;
21326;SDS011;10822;51.532;6.770;2022-11-20T15:24:09;35.03;;;16.95;;
21326;SDS011;10822;51.532;6.770;2022-11-20T15:26:35;34.42;;;16.92;;
21326;SDS011;10822;51.532;6.770;2022-11-20T15:29:02;30.75;;;16.08;;
21326;SDS011;10822;51.532;6.770;2022-11-20T15:31:28;32.45;;;15.77;;
21326;SDS011;10822;51.532;6.770;2022-11-20T15:33:53;37.65;;;17.98;;
21326;SDS011;10822;51.532;6.770;2022-11-20T15:36:19;31.77;;;16.50;;
21326;SDS011;10822;51.532;6.770;2022-11-20T15:38:45;30.52;;;15.52;;
21326;SDS011;10822;51.532;6.770;2022-11-20T15:41:11;30.98;;;15.85;;
21326;SDS011;10822;51.532;6.770;2022-11-20T15:43:37;32.22;;;16.77;;
21326;SDS011;10822;51.532;6.770;2022-11-20T15:46:09;36.00;;;17.20;;
21326;SDS011;10822;51.532;6.770;2022-11-20T15:51:03;33.08;;;17.70;;